Time;durP1;ratioP1;P1;durP2;ratioP2;P2;SDS_P1;SDS_P2;PMS_P1;PMS_P2;Temp;Humidity;BMP_temperature;BMP_pressure;BME280_temperature;BME280_humidity;BME280_pressure;Samples;Min_cycle;Max_cycle;Signal;HPM_P1;HPM_P2
2021/08/14 00:02:16;;;;;;;12.50;10.40;;;24.70;99.90;;;;;;6187047;23;20263;-64
2021/08/14 00:04:41;;;;;;;14.33;9.37;;;24.70;99.90;;;;;;6187662;23;20573;-63
2021/08/14 00:07:07;;;;;;;10.80;9.50;;;24.70;99.90;;;;;;6160783;23;20179;-63
2021/08/14 00:09:36;;;;;;;11.13;9.10;;;24.70;99.90;;;;;;6160997;23;20251;-63
2021/08/14 00:12:02;;;;;;;11.07;8.80;;;24.70;99.90;;;;;;6186980;23;20648;-63
2021/08/14 00:14:28;;;;;;;13.00;9.93;;;24.70;99.90;;;;;;6187791;23;20377;-63
2021/08/14 00:16:54;;;;;;;10.03;8.70;;;24.70;99.90;;;;;;6160627;23;20428;-63
2021/08/14 00:19:19;;;;;;;12.13;8.33;;;24.70;99.90;;;;;;6187643;23;20386;-63
2021/08/14 00:21:45;;;;;;;11.70;9.90;;;24.70;99.90;;;;;;6186922;23;20538;-63
2021/08/14 00:24:11;;;;;;;9.97;9.00;;;24.70;99.90;;;;;;6187204;23;20156;-63
2021/08/14 00:26:37;;;;;;;10.97;9.37;;;24.70;99.90;;;;;;6186514;23;20175;-63
2021/08/14 00:29:03;;;;;;;10.27;9.27;;;24.70;99.90;;;;;;6160683;23;20927;-63
2021/08/14 00:31:29;;;;;;;12.97;9.97;;;24.80;99.90;;;;;;6186848;23;20526;-64
2021/08/14 00:33:55;;;;;;;12.63;10.03;;;24.80;99.90;;;;;;6187188;23;20753;-63
2021/08/14 00:36:20;;;;;;;12.70;9.07;;;24.80;99.90;;;;;;6160428;23;20473;-63
2021/08/14 00:38:46;;;;;;;11.37;9.27;;;24.80;99.90;;;;;;6187097;23;20203;-64
2021/08/14 00:41:12;;;;;;;10.90;9.80;;;24.70;99.90;;;;;;6186706;23;20202;-63
2021/08/14 00:43:39;;;;;;;13.37;10.07;;;24.80;99.90;;;;;;6187188;23;20179;-62
2021/08/14 00:46:05;;;;;;;9.70;8.83;;;24.70;99.90;;;;;;6186529;23;20370;-63
2021/08/14 00:48:31;;;;;;;10.70;9.60;;;24.70;99.90;;;;;;6186915;23;20417;-63
2021/08/14 00:50:58;;;;;;;11.63;9.90;;;24.70;99.90;;;;;;6160340;23;20431;-64
2021/08/14 00:53:24;;;;;;;12.60;9.40;;;24.70;99.90;;;;;;6186848;23;20773;-63
2021/08/14 00:55:50;;;;;;;10.83;9.73;;;24.60;99.90;;;;;;6186703;23;20408;-63
2021/08/14 00:58:16;;;;;;;12.73;9.80;;;24.60;99.90;;;;;;6160028;23;20441;-63
2021/08/14 01:00:43;;;;;;;12.17;10.30;;;24.60;99.90;;;;;;6186611;23;20374;-63
2021/08/14 01:03:08;;;;;;;12.00;9.40;;;24.60;99.90;;;;;;6186664;23;20185;-63
2021/08/14 01:05:45;;;;;;;11.90;8.93;;;24.50;99.90;;;;;;6186601;23;20774;-63
2021/08/14 01:08:11;;;;;;;12.03;10.13;;;24.50;99.90;;;;;;6186357;23;20195;-63
2021/08/14 01:10:37;;;;;;;16.17;10.53;;;24.50;99.90;;;;;;6186618;23;20676;-63
2021/08/14 01:13:03;;;;;;;13.73;10.87;;;24.50;99.90;;;;;;6186496;23;20495;-63
2021/08/14 01:15:28;;;;;;;19.20;10.70;;;24.50;99.90;;;;;;6160164;23;20160;-64
2021/08/14 01:17:55;;;;;;;11.00;9.80;;;24.40;99.90;;;;;;6186546;23;20897;-63
2021/08/14 01:20:21;;;;;;;12.00;10.23;;;24.40;99.90;;;;;;6186442;23;20163;-63
2021/08/14 01:22:46;;;;;;;12.07;10.87;;;24.30;99.90;;;;;;6186422;23;20417;-63
2021/08/14 01:25:12;;;;;;;12.93;11.10;;;24.30;99.90;;;;;;6186384;23;20152;-63
2021/08/14 01:27:39;;;;;;;10.87;9.77;;;24.30;99.90;;;;;;6160154;23;20178;-63
2021/08/14 01:30:05;;;;;;;14.83;10.43;;;24.30;99.90;;;;;;6186392;23;20151;-62
2021/08/14 01:32:31;;;;;;;12.63;10.33;;;24.20;99.90;;;;;;6186412;23;20482;-62
2021/08/14 01:35:00;;;;;;;13.20;10.60;;;24.20;99.90;;;;;;6186241;23;20418;-63
2021/08/14 01:37:33;;;;;;;18.77;11.30;;;24.10;99.90;;;;;;6185824;23;20514;-64
2021/08/14 01:39:59;;;;;;;11.00;9.53;;;24.10;99.90;;;;;;6186354;23;20364;-63
2021/08/14 01:42:25;;;;;;;11.43;9.27;;;24.10;99.90;;;;;;6185983;23;20396;-63
2021/08/14 01:44:51;;;;;;;12.93;10.33;;;24.00;99.90;;;;;;6186558;23;20877;-63
2021/08/14 01:47:17;;;;;;;13.03;9.77;;;24.00;99.90;;;;;;6159758;23;20186;-63
2021/08/14 01:49:43;;;;;;;14.33;11.23;;;23.90;99.90;;;;;;6186882;23;20523;-63
2021/08/14 01:52:10;;;;;;;11.73;9.60;;;23.90;99.90;;;;;;6185960;23;20191;-63
2021/08/14 01:54:37;;;;;;;12.67;11.00;;;23.80;99.90;;;;;;6160171;23;20464;-62
2021/08/14 01:57:03;;;;;;;12.20;10.90;;;23.70;99.90;;;;;;6159200;23;20400;-63
2021/08/14 01:59:28;;;;;;;11.17;9.90;;;23.70;99.90;;;;;;6186783;23;20404;-64
2021/08/14 02:01:54;;;;;;;14.37;10.30;;;23.70;99.90;;;;;;6159804;23;20257;-63
2021/08/14 02:04:20;;;;;;;15.43;11.43;;;23.70;99.90;;;;;;6186689;23;20155;-63
2021/08/14 02:06:46;;;;;;;12.70;10.17;;;23.70;99.90;;;;;;6186209;23;20182;-62
2021/08/14 02:09:11;;;;;;;12.83;10.60;;;23.70;99.90;;;;;;6159665;23;20392;-63
2021/08/14 02:11:38;;;;;;;15.73;11.37;;;23.60;99.90;;;;;;6186144;23;20210;-63
2021/08/14 02:14:04;;;;;;;15.03;11.60;;;23.60;99.90;;;;;;6186408;23;20190;-63
2021/08/14 02:16:30;;;;;;;16.50;10.60;;;23.60;99.90;;;;;;6159681;23;20412;-63
2021/08/14 02:18:58;;;;;;;15.17;11.07;;;23.60;99.90;;;;;;6186544;23;20380;-63
2021/08/14 02:21:23;;;;;;;15.00;12.23;;;23.50;99.90;;;;;;6186203;23;20400;-63
2021/08/14 02:23:49;;;;;;;16.57;10.70;;;23.50;99.90;;;;;;6186508;23;20395;-63
2021/08/14 02:26:15;;;;;;;13.90;11.63;;;23.60;99.90;;;;;;6186104;23;20155;-63
2021/08/14 02:28:40;;;;;;;12.90;11.57;;;23.50;99.90;;;;;;6186370;23;20519;-63
2021/08/14 02:31:06;;;;;;;12.53;10.20;;;23.50;99.90;;;;;;6186052;23;20154;-64
2021/08/14 02:33:33;;;;;;;13.97;11.80;;;23.50;99.90;;;;;;6186212;23;20921;-64
2021/08/14 02:36:00;;;;;;;11.73;10.50;;;23.40;99.90;;;;;;6186100;23;20561;-62
2021/08/14 02:38:25;;;;;;;15.57;11.27;;;23.40;99.90;;;;;;6185960;23;20759;-63
2021/08/14 13:24:10;;;;;;;8.10;7.40;;;34.40;84.10;;;;;;5130189;27;20655;-65
2021/08/14 13:26:35;;;;;;;9.37;7.60;;;34.20;86.10;;;;;;5131618;27;20794;-65
2021/08/14 13:29:01;;;;;;;7.97;6.87;;;34.20;85.50;;;;;;5114798;28;20556;-64
2021/08/14 13:31:27;;;;;;;7.37;6.70;;;34.20;84.40;;;;;;5131198;27;20231;-64
2021/08/14 13:33:54;;;;;;;8.53;7.20;;;34.10;84.50;;;;;;5127261;28;20415;-66
2021/08/14 13:36:20;;;;;;;7.97;7.30;;;34.10;84.80;;;;;;5111227;28;20227;-64
2021/08/14 13:38:45;;;;;;;8.30;7.57;;;34.00;84.40;;;;;;5130360;28;20459;-65
2021/08/14 13:41:11;;;;;;;8.23;7.40;;;34.00;85.30;;;;;;5114422;28;20202;-65
2021/08/14 13:43:36;;;;;;;8.13;7.27;;;34.00;85.40;;;;;;5111577;28;20581;-65
2021/08/14 13:46:03;;;;;;;7.60;6.83;;;33.90;85.80;;;;;;5109730;28;20224;-64
2021/08/14 13:48:28;;;;;;;8.63;7.43;;;33.90;86.40;;;;;;5113062;28;20176;-65
2021/08/14 13:50:54;;;;;;;7.67;6.97;;;33.90;86.00;;;;;;5122422;28;21016;-64
2021/08/14 13:53:20;;;;;;;7.43;6.83;;;33.90;85.30;;;;;;5123039;28;20239;-64
2021/08/14 13:55:46;;;;;;;8.90;6.80;;;33.90;84.90;;;;;;5126705;28;20537;-64
2021/08/14 13:58:11;;;;;;;8.37;7.60;;;33.80;84.70;;;;;;5128362;28;20176;-65
2021/08/14 14:00:37;;;;;;;8.10;7.40;;;33.80;85.00;;;;;;5157993;27;20187;-64
2021/08/14 14:03:03;;;;;;;8.20;7.50;;;33.80;86.00;;;;;;5145164;27;20184;-66
2021/08/14 14:05:28;;;;;;;8.00;7.30;;;33.80;85.40;;;;;;5128073;28;20667;-64
2021/08/14 14:07:54;;;;;;;11.33;7.00;;;33.80;86.10;;;;;;5125252;28;20172;-65
2021/08/14 14:10:20;;;;;;;8.13;7.40;;;33.80;86.30;;;;;;5118908;28;20208;-66
2021/08/14 14:12:45;;;;;;;6.90;6.40;;;33.70;85.10;;;;;;5125310;28;20672;-65
2021/08/14 14:15:11;;;;;;;8.37;7.57;;;33.70;85.90;;;;;;5122310;28;20202;-65
2021/08/14 14:17:38;;;;;;;7.70;6.90;;;33.70;86.30;;;;;;5112036;28;20180;-67
2021/08/14 14:20:05;;;;;;;8.03;7.33;;;33.70;86.50;;;;;;5115287;28;20435;-65
2021/08/14 14:22:31;;;;;;;7.40;6.80;;;33.60;86.50;;;;;;5120940;28;20476;-65
2021/08/14 14:24:57;;;;;;;7.57;6.90;;;33.60;86.40;;;;;;5107405;28;20452;-64
2021/08/14 14:27:23;;;;;;;7.17;6.47;;;33.60;86.70;;;;;;5101104;28;20824;-64
2021/08/14 14:29:48;;;;;;;7.30;6.57;;;33.60;85.80;;;;;;5108271;28;20475;-64
2021/08/14 14:32:14;;;;;;;7.33;6.37;;;33.50;86.00;;;;;;5101588;28;20225;-66
2021/08/14 14:34:39;;;;;;;9.07;8.20;;;33.50;86.40;;;;;;5104725;28;20265;-66
2021/08/14 14:37:06;;;;;;;8.13;6.83;;;33.50;86.70;;;;;;5102051;28;20558;-65
2021/08/14 14:39:32;;;;;;;7.30;6.60;;;33.50;87.00;;;;;;5102312;28;20226;-66
2021/08/14 14:41:58;;;;;;;8.30;6.97;;;33.50;87.70;;;;;;5100784;28;20781;-67
2021/08/14 14:44:23;;;;;;;10.60;7.70;;;33.40;87.50;;;;;;5109206;28;20439;-67
2021/08/14 14:46:49;;;;;;;8.33;7.03;;;33.40;88.50;;;;;;5101351;28;20181;-64
2021/08/14 14:49:15;;;;;;;6.87;6.27;;;33.40;88.30;;;;;;5101963;28;20205;-64
2021/08/14 14:51:40;;;;;;;9.50;7.83;;;33.40;87.10;;;;;;5107855;28;20210;-65
2021/08/14 14:54:06;;;;;;;7.53;6.93;;;33.40;86.80;;;;;;5098648;28;20176;-66
2021/08/14 14:56:32;;;;;;;7.23;6.53;;;33.40;87.00;;;;;;5100566;28;20567;-64
2021/08/14 14:58:57;;;;;;;7.60;6.87;;;33.30;87.20;;;;;;5095287;28;20179;-66
2021/08/14 15:01:23;;;;;;;7.87;7.10;;;33.30;87.50;;;;;;5099604;28;20361;-66
2021/08/14 15:03:48;;;;;;;6.90;6.27;;;33.40;86.80;;;;;;5106941;28;20176;-66
2021/08/14 15:06:14;;;;;;;7.80;6.37;;;33.30;87.10;;;;;;5115706;28;20199;-65
2021/08/14 15:08:40;;;;;;;7.70;7.00;;;33.30;87.30;;;;;;5149408;27;20219;-65
2021/08/14 15:11:05;;;;;;;8.77;6.57;;;33.30;87.50;;;;;;5116196;28;20200;-65
2021/08/14 15:13:31;;;;;;;8.10;5.40;;;33.20;87.40;;;;;;5116694;28;20211;-64
2021/08/14 15:15:57;;;;;;;6.03;5.47;;;33.20;87.50;;;;;;5116080;28;20196;-65
2021/08/14 15:18:23;;;;;;;7.37;6.63;;;33.10;87.50;;;;;;5115104;28;20656;-64
2021/08/14 15:20:48;;;;;;;7.00;6.03;;;33.10;87.60;;;;;;5115985;28;20274;-66
2021/08/14 15:23:14;;;;;;;6.57;5.97;;;33.10;87.70;;;;;;5115883;28;20260;-66
2021/08/14 15:25:41;;;;;;;6.90;6.30;;;33.00;87.60;;;;;;5113666;27;20195;-64
2021/08/14 15:28:07;;;;;;;7.67;6.90;;;33.00;87.70;;;;;;5109208;28;20186;-65
2021/08/14 15:30:33;;;;;;;7.27;6.57;;;33.00;87.10;;;;;;5095294;28;20425;-64
2021/08/14 15:32:58;;;;;;;7.60;6.80;;;33.00;87.40;;;;;;5095642;28;20553;-66
2021/08/14 15:35:24;;;;;;;7.47;6.87;;;33.00;87.70;;;;;;5094150;28;20199;-64
2021/08/14 15:37:49;;;;;;;7.00;6.33;;;32.90;87.70;;;;;;5095664;28;20664;-64
2021/08/14 15:40:15;;;;;;;6.93;6.33;;;32.90;87.90;;;;;;5092459;28;20565;-65
2021/08/14 15:42:43;;;;;;;7.90;7.20;;;32.90;87.90;;;;;;5093410;28;20644;-65
2021/08/14 15:45:09;;;;;;;7.70;7.10;;;32.90;88.10;;;;;;5093441;28;20498;-65
2021/08/14 15:47:35;;;;;;;8.00;7.20;;;32.80;88.10;;;;;;5094414;28;20752;-64
2021/08/14 15:50:00;;;;;;;7.67;7.00;;;32.80;88.50;;;;;;5093857;28;20577;-64
2021/08/14 15:52:27;;;;;;;8.67;7.77;;;32.80;89.00;;;;;;5094179;28;20578;-64
2021/08/14 15:54:52;;;;;;;8.03;7.20;;;32.80;88.90;;;;;;5093906;28;20200;-65
2021/08/14 15:57:18;;;;;;;8.77;7.87;;;32.80;89.00;;;;;;5095073;28;20413;-66
2021/08/14 15:59:44;;;;;;;7.63;6.83;;;32.70;88.90;;;;;;5094800;28;20621;-64
2021/08/14 16:02:12;;;;;;;8.90;7.57;;;32.60;89.00;;;;;;5095024;28;20649;-65
2021/08/14 16:04:39;;;;;;;7.37;6.67;;;32.60;89.10;;;;;;5094738;28;20707;-65
2021/08/14 16:07:05;;;;;;;8.60;7.80;;;32.50;89.20;;;;;;5094942;28;20476;-65
2021/08/14 16:09:31;;;;;;;8.40;7.70;;;32.50;89.40;;;;;;5094677;28;20492;-65
2021/08/14 16:11:58;;;;;;;8.77;7.87;;;32.50;89.50;;;;;;5094692;28;20567;-64
2021/08/14 16:14:23;;;;;;;11.17;8.13;;;32.40;89.60;;;;;;5094622;28;20167;-65
2021/08/14 16:16:49;;;;;;;9.33;8.40;;;32.40;89.60;;;;;;5094791;28;20901;-64
2021/08/14 16:19:14;;;;;;;8.73;8.03;;;32.40;89.70;;;;;;5094420;28;20184;-64
2021/08/14 16:21:40;;;;;;;9.80;8.80;;;32.30;89.80;;;;;;5093167;28;20185;-65
2021/08/14 16:24:07;;;;;;;8.67;7.87;;;32.30;90.00;;;;;;5094339;28;20252;-66
2021/08/14 16:26:32;;;;;;;9.40;8.30;;;32.30;90.20;;;;;;5093033;28;20192;-62
2021/08/14 16:28:58;;;;;;;9.33;8.33;;;32.20;90.20;;;;;;5093137;28;20416;-62
2021/08/14 16:31:24;;;;;;;9.30;8.10;;;32.20;90.30;;;;;;5094245;28;20196;-62
2021/08/14 16:33:49;;;;;;;10.33;8.67;;;32.20;90.40;;;;;;5092985;28;20859;-63
2021/08/14 16:36:15;;;;;;;10.47;8.27;;;32.20;90.70;;;;;;5092858;28;20204;-64
2021/08/14 16:38:40;;;;;;;9.20;7.77;;;32.20;90.70;;;;;;5094216;28;20179;-62
2021/08/14 16:41:06;;;;;;;9.67;8.67;;;32.20;90.70;;;;;;5094117;28;20207;-62
2021/08/14 16:43:31;;;;;;;8.70;7.90;;;32.10;90.70;;;;;;5094846;28;20173;-62
2021/08/14 16:45:58;;;;;;;10.20;8.80;;;32.10;90.70;;;;;;5094046;28;20246;-64
2021/08/14 16:48:23;;;;;;;8.73;7.83;;;32.10;91.10;;;;;;5092772;28;20717;-62
2021/08/14 16:50:49;;;;;;;9.20;8.40;;;32.10;91.00;;;;;;5093944;28;20500;-62
2021/08/14 16:53:14;;;;;;;10.90;8.37;;;32.00;90.80;;;;;;5092810;28;20216;-62
2021/08/14 16:55:40;;;;;;;8.23;7.43;;;32.00;90.90;;;;;;5093933;28;20271;-62
2021/08/14 16:58:06;;;;;;;10.13;8.00;;;31.90;90.80;;;;;;5094392;28;20181;-62
2021/08/14 17:00:31;;;;;;;9.03;8.13;;;31.90;90.80;;;;;;5092661;28;20671;-62
2021/08/14 17:02:57;;;;;;;9.00;8.17;;;31.90;91.00;;;;;;5094258;28;20180;-62
2021/08/14 17:05:24;;;;;;;9.53;8.33;;;31.80;91.70;;;;;;5093871;28;20640;-62
2021/08/14 17:07:50;;;;;;;13.30;9.30;;;31.80;91.50;;;;;;5094238;28;20176;-62
2021/08/14 17:10:16;;;;;;;9.43;8.53;;;31.80;92.20;;;;;;5093728;28;20421;-62
2021/08/14 17:12:41;;;;;;;8.20;7.50;;;31.80;93.90;;;;;;5094026;28;20224;-63
2021/08/14 17:15:09;;;;;;;9.07;8.20;;;31.70;94.10;;;;;;5093757;28;20619;-62
2021/08/14 17:17:35;;;;;;;11.93;9.00;;;31.70;93.40;;;;;;5093973;28;20255;-62
2021/08/14 17:20:00;;;;;;;11.40;8.80;;;31.70;93.10;;;;;;5093611;28;20438;-62
2021/08/14 17:22:26;;;;;;;10.57;9.57;;;31.70;93.10;;;;;;5093814;28;20460;-62
2021/08/14 17:24:53;;;;;;;13.27;10.20;;;31.60;93.20;;;;;;5093584;28;20184;-62
2021/08/14 17:27:20;;;;;;;13.00;9.57;;;31.60;93.20;;;;;;5093887;28;20172;-63
2021/08/14 17:29:46;;;;;;;13.53;12.00;;;31.60;93.20;;;;;;5093699;28;20810;-61
2021/08/14 17:32:12;;;;;;;11.70;9.47;;;31.60;93.80;;;;;;5093689;28;20476;-62
2021/08/14 17:34:38;;;;;;;9.60;8.60;;;31.50;94.00;;;;;;5093618;28;20913;-63
2021/08/14 17:37:04;;;;;;;15.77;10.77;;;31.50;93.60;;;;;;5093737;28;20180;-62
2021/08/14 17:39:30;;;;;;;11.40;10.10;;;31.50;93.70;;;;;;5093570;28;20446;-62
2021/08/14 17:41:57;;;;;;;12.93;10.70;;;31.40;94.00;;;;;;5092304;28;20479;-62
2021/08/14 17:44:23;;;;;;;11.17;9.87;;;31.40;94.20;;;;;;5093546;28;20230;-62
2021/08/14 17:46:49;;;;;;;11.60;10.40;;;31.40;95.10;;;;;;5125259;28;20417;-62
2021/08/14 17:49:15;;;;;;;15.70;9.53;;;31.30;95.10;;;;;;5092967;28;20178;-62
2021/08/14 17:51:42;;;;;;;10.57;9.53;;;31.30;95.30;;;;;;5091569;28;20767;-62
2021/08/14 17:54:08;;;;;;;12.97;9.40;;;31.20;95.90;;;;;;5091317;28;20403;-62
2021/08/14 17:56:33;;;;;;;11.33;9.03;;;31.20;96.30;;;;;;5089941;28;20526;-62
2021/08/14 17:58:59;;;;;;;12.17;9.47;;;31.20;96.20;;;;;;5092469;28;20404;-62
2021/08/14 18:01:25;;;;;;;12.40;8.70;;;31.10;95.90;;;;;;5094949;28;20731;-62
2021/08/14 18:03:51;;;;;;;12.90;9.63;;;31.00;95.70;;;;;;5095419;28;20702;-62
2021/08/14 18:06:16;;;;;;;10.83;9.37;;;30.90;95.30;;;;;;5096897;28;20458;-64
2021/08/14 18:08:43;;;;;;;10.07;8.67;;;30.90;95.70;;;;;;5108944;28;20218;-65
2021/08/14 18:11:09;;;;;;;15.57;9.20;;;30.80;96.60;;;;;;5105988;28;20199;-65
2021/08/14 18:13:36;;;;;;;18.03;10.10;;;30.80;97.30;;;;;;5113547;28;20467;-65
2021/08/14 18:16:01;;;;;;;11.10;8.50;;;30.80;97.60;;;;;;5148242;27;20524;-63
2021/08/14 18:18:27;;;;;;;19.40;11.83;;;30.70;97.80;;;;;;5112873;28;20447;-64
2021/08/14 18:20:53;;;;;;;10.20;8.50;;;30.60;98.00;;;;;;5122236;27;20189;-64
2021/08/14 18:23:20;;;;;;;9.27;8.47;;;30.60;97.60;;;;;;5119483;27;20242;-63
2021/08/14 18:25:47;;;;;;;7.67;7.07;;;30.50;97.60;;;;;;5127183;27;20199;-63
2021/08/14 18:28:13;;;;;;;15.67;8.60;;;30.50;97.30;;;;;;5092617;28;20446;-63
2021/08/14 18:30:40;;;;;;;10.60;8.00;;;30.40;97.00;;;;;;5094117;28;20501;-64
2021/08/14 18:33:07;;;;;;;11.10;7.90;;;30.40;97.10;;;;;;5094763;28;20211;-64
2021/08/14 18:35:33;;;;;;;9.43;7.63;;;30.30;96.60;;;;;;5094281;28;20423;-63
2021/08/14 18:37:59;;;;;;;8.33;6.93;;;30.30;96.00;;;;;;5094395;28;20517;-63
2021/08/14 18:40:25;;;;;;;11.17;7.43;;;30.30;95.70;;;;;;5093757;28;20870;-63
2021/08/14 18:42:50;;;;;;;7.50;6.53;;;30.30;95.50;;;;;;5127097;27;20213;-63
2021/08/14 18:45:16;;;;;;;9.33;6.30;;;30.20;95.30;;;;;;5094147;28;20701;-64
2021/08/14 18:47:42;;;;;;;7.57;6.83;;;30.20;95.20;;;;;;5092943;28;20196;-63
2021/08/14 18:50:09;;;;;;;7.63;6.90;;;30.20;94.90;;;;;;5093980;28;20427;-63
2021/08/14 18:52:34;;;;;;;7.70;6.70;;;30.20;94.70;;;;;;5094344;28;20470;-64
2021/08/14 18:55:02;;;;;;;8.40;7.50;;;30.20;94.50;;;;;;5095610;28;20459;-63
2021/08/14 18:57:28;;;;;;;12.00;6.57;;;30.20;94.50;;;;;;5096552;28;20176;-63
2021/08/14 18:59:53;;;;;;;10.37;7.17;;;30.20;94.50;;;;;;5095992;28;20483;-65
2021/08/14 19:02:19;;;;;;;8.37;6.60;;;30.20;94.50;;;;;;5096315;28;20252;-64
2021/08/14 19:04:44;;;;;;;9.27;6.80;;;30.20;94.40;;;;;;5096029;28;20552;-63
2021/08/14 19:07:10;;;;;;;7.63;6.03;;;30.20;94.50;;;;;;5096197;28;20184;-63
2021/08/14 19:09:36;;;;;;;13.10;6.20;;;30.20;94.50;;;;;;5095727;28;20190;-63
2021/08/14 19:12:05;;;;;;;9.20;6.70;;;30.20;94.50;;;;;;5095888;28;20294;-63
2021/08/14 19:14:31;;;;;;;8.57;7.30;;;30.20;94.50;;;;;;5095833;28;20646;-63
2021/08/14 19:16:57;;;;;;;8.40;6.80;;;30.20;94.50;;;;;;5095938;28;20411;-63
2021/08/14 19:19:22;;;;;;;9.00;6.13;;;30.20;94.50;;;;;;5095735;28;20172;-64
2021/08/14 19:21:48;;;;;;;10.87;6.77;;;30.20;94.60;;;;;;5095495;28;20609;-66
2021/08/14 19:24:14;;;;;;;9.43;6.43;;;30.20;94.50;;;;;;5095786;28;20298;-63
2021/08/14 19:26:39;;;;;;;10.77;7.10;;;30.20;94.60;;;;;;5095699;28;20178;-64
2021/08/14 19:29:05;;;;;;;7.30;6.60;;;30.20;94.90;;;;;;5095544;28;20170;-64
2021/08/14 19:31:30;;;;;;;8.03;6.70;;;30.20;95.10;;;;;;5095360;28;20237;-63
2021/08/14 19:33:56;;;;;;;14.53;7.60;;;30.20;96.40;;;;;;5095406;28;20184;-65
2021/08/14 19:36:22;;;;;;;9.20;6.40;;;30.10;95.50;;;;;;5095243;28;20227;-63
2021/08/14 19:38:47;;;;;;;7.03;6.23;;;30.10;95.70;;;;;;5095349;28;20188;-64
2021/08/14 19:41:13;;;;;;;9.30;7.70;;;30.10;95.40;;;;;;5095285;28;20303;-65
2021/08/14 19:43:38;;;;;;;8.13;7.33;;;30.00;95.90;;;;;;5095327;28;20179;-63
2021/08/14 19:46:04;;;;;;;14.53;7.20;;;30.00;95.60;;;;;;5127957;27;20207;-63
2021/08/14 19:48:30;;;;;;;7.00;6.40;;;30.00;95.50;;;;;;5095296;28;20180;-63
2021/08/14 19:50:55;;;;;;;15.73;8.80;;;29.90;95.30;;;;;;5095052;28;20243;-65
2021/08/14 19:53:21;;;;;;;7.60;6.30;;;29.90;95.70;;;;;;5128074;27;20244;-63
2021/08/14 19:55:46;;;;;;;6.90;6.20;;;29.80;95.50;;;;;;5095047;28;20194;-63
2021/08/14 19:58:12;;;;;;;7.97;6.90;;;29.80;96.20;;;;;;5095341;28;20263;-63
2021/08/14 20:00:38;;;;;;;6.40;5.80;;;29.80;96.40;;;;;;5094917;28;20283;-65
2021/08/14 20:03:04;;;;;;;9.20;6.83;;;29.80;95.70;;;;;;5094826;28;20183;-63
2021/08/14 20:05:30;;;;;;;9.80;6.90;;;29.70;95.60;;;;;;5093556;28;20201;-63
2021/08/14 20:07:56;;;;;;;9.00;8.10;;;29.70;95.60;;;;;;5095221;28;20467;-65
2021/08/14 20:10:21;;;;;;;11.70;7.60;;;29.70;95.60;;;;;;5094830;28;20199;-63
2021/08/14 20:12:47;;;;;;;11.83;6.97;;;29.60;96.10;;;;;;5127560;27;20314;-63
2021/08/14 20:15:13;;;;;;;7.77;6.37;;;29.60;96.50;;;;;;5094556;28;20195;-63
2021/08/14 20:17:39;;;;;;;7.20;6.23;;;29.60;96.50;;;;;;5094910;28;20175;-64
2021/08/14 20:20:05;;;;;;;9.67;6.77;;;29.60;96.30;;;;;;5094475;28;20841;-63
2021/08/14 20:22:31;;;;;;;8.10;6.53;;;29.50;96.20;;;;;;5093627;28;20716;-63
2021/08/14 20:24:59;;;;;;;8.10;6.90;;;29.50;96.50;;;;;;5094433;28;20466;-63
2021/08/14 20:27:24;;;;;;;8.23;5.93;;;29.50;96.90;;;;;;5127524;27;20640;-63
2021/08/14 20:29:51;;;;;;;11.50;6.73;;;29.50;97.20;;;;;;5094321;28;20431;-63
2021/08/14 20:32:17;;;;;;;10.00;6.87;;;29.40;97.30;;;;;;5093028;28;20214;-64
2021/08/14 20:34:42;;;;;;;8.83;7.37;;;29.40;97.40;;;;;;5094335;28;20434;-63
2021/08/14 20:37:08;;;;;;;10.93;7.53;;;29.40;97.90;;;;;;5094450;28;20191;-63
2021/08/14 20:39:33;;;;;;;14.73;7.90;;;29.30;97.80;;;;;;5094284;28;20250;-63
2021/08/14 20:41:59;;;;;;;7.50;6.67;;;29.20;97.80;;;;;;5094381;28;20199;-63
2021/08/14 20:44:25;;;;;;;9.07;7.97;;;29.20;98.20;;;;;;5094119;28;20169;-63
2021/08/14 20:46:50;;;;;;;8.93;7.80;;;29.20;98.40;;;;;;5094349;28;20180;-63
2021/08/14 20:49:16;;;;;;;9.43;7.53;;;29.10;98.40;;;;;;5094015;28;20172;-63
2021/08/14 20:51:42;;;;;;;11.50;7.17;;;29.00;99.00;;;;;;5094115;28;20232;-63
2021/08/14 20:54:07;;;;;;;9.70;8.13;;;29.00;98.80;;;;;;5094084;28;20176;-64
2021/08/14 20:56:33;;;;;;;9.93;6.83;;;28.90;99.10;;;;;;5093948;28;20198;-63
2021/08/14 20:59:01;;;;;;;9.57;7.57;;;28.80;99.20;;;;;;5094030;28;20192;-64
2021/08/14 21:01:30;;;;;;;7.47;6.70;;;28.80;99.20;;;;;;5093994;28;20415;-63
2021/08/14 21:03:57;;;;;;;11.20;7.83;;;28.70;99.40;;;;;;5092643;28;20880;-65
2021/08/14 21:06:23;;;;;;;11.30;7.80;;;28.70;99.60;;;;;;5093912;28;20922;-63
2021/08/14 21:08:48;;;;;;;15.03;11.30;;;28.60;99.70;;;;;;5093947;28;20397;-64
2021/08/14 21:11:14;;;;;;;15.00;10.73;;;28.50;99.50;;;;;;5093607;28;20198;-65
2021/08/14 21:13:39;;;;;;;14.43;10.13;;;28.50;99.60;;;;;;5093800;28;20279;-64
2021/08/14 21:16:05;;;;;;;14.23;11.03;;;28.40;99.80;;;;;;5093788;28;20204;-63
2021/08/14 21:18:31;;;;;;;10.83;9.10;;;28.40;99.90;;;;;;5094296;28;20732;-63
2021/08/14 21:20:56;;;;;;;12.80;9.80;;;28.40;99.90;;;;;;5093643;28;20186;-64
2021/08/14 21:23:22;;;;;;;13.37;10.97;;;28.40;99.90;;;;;;5093850;28;20224;-63
2021/08/14 21:25:47;;;;;;;12.03;10.83;;;28.30;99.90;;;;;;5093756;28;20193;-63
2021/08/14 21:28:13;;;;;;;12.07;9.60;;;28.30;99.90;;;;;;5099086;28;20191;-63
2021/08/14 21:30:38;;;;;;;11.67;10.47;;;28.30;99.90;;;;;;5113798;28;20215;-64
2021/08/14 21:33:04;;;;;;;14.20;9.93;;;28.20;99.90;;;;;;5112294;28;20220;-63
2021/08/14 21:35:30;;;;;;;10.67;9.00;;;28.10;99.90;;;;;;5115656;28;20408;-63
2021/08/14 21:37:55;;;;;;;13.43;9.80;;;28.10;99.90;;;;;;5115906;28;20191;-63
2021/08/14 21:40:21;;;;;;;12.40;8.50;;;28.00;99.90;;;;;;5114050;28;20195;-63
2021/08/14 21:42:47;;;;;;;10.00;8.73;;;28.00;99.90;;;;;;5114494;28;20180;-64
2021/08/14 21:45:13;;;;;;;13.40;8.80;;;27.90;99.90;;;;;;5113998;28;20605;-63
2021/08/14 21:47:39;;;;;;;9.43;8.37;;;27.90;99.90;;;;;;5115264;28;20629;-63
2021/08/14 21:50:05;;;;;;;9.17;8.17;;;27.80;99.90;;;;;;5115624;28;20416;-63
2021/08/14 21:52:31;;;;;;;7.80;7.20;;;27.70;99.90;;;;;;5115699;28;20460;-63
2021/08/14 21:54:57;;;;;;;10.23;8.53;;;27.70;99.90;;;;;;5115524;28;20511;-64
2021/08/14 21:57:23;;;;;;;8.70;7.90;;;27.60;99.90;;;;;;5116567;28;20506;-63
2021/08/14 21:59:49;;;;;;;13.93;8.37;;;27.60;99.90;;;;;;5117660;28;20206;-63
2021/08/14 22:02:17;;;;;;;9.10;8.30;;;27.60;99.90;;;;;;5116418;28;20180;-63
2021/08/14 22:04:42;;;;;;;10.00;7.90;;;27.60;99.90;;;;;;5117519;28;20756;-63
2021/08/14 22:07:08;;;;;;;11.73;8.37;;;27.60;99.90;;;;;;5117760;28;20511;-64
2021/08/14 22:09:34;;;;;;;9.40;8.20;;;27.50;99.90;;;;;;5117402;28;20234;-63
2021/08/14 22:11:59;;;;;;;13.27;9.03;;;27.50;99.90;;;;;;5117550;28;20203;-63
2021/08/14 22:14:25;;;;;;;10.00;8.77;;;27.50;99.90;;;;;;5117574;28;20177;-63
2021/08/14 22:16:51;;;;;;;10.50;7.87;;;27.50;99.90;;;;;;5117422;28;20213;-63
2021/08/14 22:19:17;;;;;;;11.93;10.13;;;27.50;99.90;;;;;;5117210;28;20168;-63
2021/08/14 22:21:42;;;;;;;12.20;9.43;;;27.50;99.90;;;;;;5115996;28;20491;-63
2021/08/14 22:24:08;;;;;;;10.07;8.10;;;27.50;99.90;;;;;;5150116;27;20314;-63
2021/08/14 22:26:34;;;;;;;9.80;8.90;;;27.50;99.90;;;;;;5117187;28;20617;-63
2021/08/14 22:29:00;;;;;;;9.50;8.60;;;27.50;99.90;;;;;;5117090;28;20180;-64
2021/08/14 22:31:25;;;;;;;11.03;8.73;;;27.50;99.90;;;;;;5117158;28;20921;-63
2021/08/14 22:33:51;;;;;;;9.23;8.40;;;27.50;99.90;;;;;;5117042;28;20211;-63
2021/08/14 22:36:18;;;;;;;9.87;8.83;;;27.50;99.90;;;;;;5116829;28;20202;-63
2021/08/14 22:38:43;;;;;;;10.77;9.10;;;27.50;99.90;;;;;;5116989;28;20658;-65
2021/08/14 22:41:09;;;;;;;18.40;15.90;;;27.50;99.90;;;;;;5116803;28;20499;-63
2021/08/14 22:43:35;;;;;;;12.90;10.80;;;27.50;99.90;;;;;;5117414;28;20685;-63
2021/08/14 22:46:01;;;;;;;11.23;9.97;;;27.50;99.90;;;;;;5116253;28;20240;-63
2021/08/14 22:48:27;;;;;;;12.40;9.90;;;27.50;99.90;;;;;;5117279;28;20404;-63
2021/08/14 22:50:53;;;;;;;11.20;9.70;;;27.40;99.90;;;;;;5115381;28;20431;-63
2021/08/14 22:53:19;;;;;;;11.67;10.50;;;27.50;99.90;;;;;;5117019;28;20656;-65
2021/08/14 22:55:45;;;;;;;10.83;9.73;;;27.50;99.90;;;;;;5116571;28;20709;-63
2021/08/14 22:58:11;;;;;;;13.17;11.67;;;27.40;99.90;;;;;;5116926;27;20254;-63
2021/08/14 23:00:37;;;;;;;10.30;9.30;;;27.40;99.90;;;;;;5116456;28;20420;-63
2021/08/14 23:03:03;;;;;;;13.83;11.03;;;27.30;99.90;;;;;;5116807;28;20183;-63
2021/08/14 23:05:29;;;;;;;11.77;9.50;;;27.30;99.90;;;;;;5116436;28;20924;-63
2021/08/14 23:07:56;;;;;;;10.87;9.90;;;27.30;99.90;;;;;;5116659;28;20415;-63
2021/08/14 23:10:25;;;;;;;11.93;10.30;;;27.20;99.90;;;;;;5116282;28;20431;-63
2021/08/14 23:12:51;;;;;;;13.20;9.90;;;27.10;99.90;;;;;;5116580;28;20832;-63
2021/08/14 23:15:17;;;;;;;12.53;10.10;;;27.10;99.90;;;;;;5116135;28;20420;-63
2021/08/14 23:17:42;;;;;;;10.03;9.07;;;27.00;99.90;;;;;;5116598;28;20423;-63